Norwegian Spirit — C6TQ6 — position and weather

sailwx.info

Track history (hours):
 
Tides and Currents Weather Stations Pressure Air Temp Water Temp Dewpoint Dewpoint Depression Visibility Wind Speed Wind Dir Waves Ship Positions

Norwegian Spirit

Operator: Norwegian Cruise Line

Last reported at 2015-Jul-07 19:34 UTC. Time now 2015-Jul-07 19:51 UTC.
Position N 42°60' E 007°09'.

Type: Ship. MMSI: 311746000.

Date/timePositionNaut miles runAvg speedWind from/ knotsBaromVisibWave heightAir tempDewpointWater temp
2015-Jul-07 19:34N 42°60' E 007°09'1515.2
2015-Jul-07 18:33N 42°58' E 006°48'1515.2
2015-Jul-07 17:33N 42°57' E 006°27'1414.3
2015-Jul-07 16:33N 42°58' E 006°08'1212.4
2015-Jul-07 15:34N 43°06' E 005°55'1 0.6
2015-Jul-07 14:32N 43°07' E 005°56'0 0.0
2015-Jul-07 13:29N 43°07' E 005°56'0 0.0
2015-Jul-07 12:31N 43°07' E 005°56'0 0.0
2015-Jul-07 11:31N 43°07' E 005°56'0 0.0
2015-Jul-07 10:34N 43°07' E 005°56'0 0.0
2015-Jul-07 09:33N 43°07' E 005°56'0 0.0
2015-Jul-07 08:33N 43°07' E 005°56'0 0.0
2015-Jul-07 07:32N 43°07' E 005°56'0 0.3
2015-Jul-07 06:33N 43°07' E 005°56'7 7.4
2015-Jul-07 05:33N 42°60' E 005°59'1017.3
2015-Jul-07 05:00N 42°54' E 005°48'614.5 160 / 181017.0 2.026.023.226.0
2015-Jul-07 04:33N 42°50' E 005°41'1220.5
2015-Jul-07 04:00N 42°42' E 005°30'511.4 160 / 181016.0 2.026.023.226.0
2015-Jul-07 03:33N 42°40' E 005°24'1716.6
2015-Jul-07 02:33N 42°33' E 005°04'1716.6
2015-Jul-07 01:33N 42°23' E 004°45'1716.7
2015-Jul-07 00:33N 42°15' E 004°26'1717.2
2015-Jul-06 23:33N 42°05' E 004°06'357634.4
2015-Jul-06 23:00N 41°54' W 003°54'343789.3
2015-Jul-06 22:33N 41°56' E 003°47'1717.1
2015-Jul-06 21:33N 41°46' E 003°27'1717.4
2015-Jul-06 20:33N 41°38' E 003°07'1817.9
2015-Jul-06 19:33N 41°29' E 002°46'1717.0
2015-Jul-06 18:33N 41°22' E 002°26'1212.1
2015-Jul-06 17:33N 41°20' E 002°10'2 2.3
2015-Jul-06 16:33N 41°22' E 002°11'0 0.0
2015-Jul-06 15:24N 41°22' E 002°11'0 0.0
2015-Jul-06 14:20N 41°22' E 002°11'0 0.0
2015-Jul-06 12:19N 41°22' E 002°11'0 0.0
2015-Jul-06 11:28N 41°22' E 002°11'0 0.0
2015-Jul-06 10:28N 41°22' E 002°11'0 0.0
2015-Jul-06 08:27N 41°22' E 002°11'0 0.0
2015-Jul-06 07:26N 41°22' E 002°11'0 0.0
2015-Jul-06 06:26N 41°22' E 002°11'0 0.0
2015-Jul-06 04:07N 41°22' E 002°11'0 0.1
2015-Jul-06 02:33N 41°22' E 002°11'8 7.7
2015-Jul-06 01:33N 41°16' E 002°18'1717.7
2015-Jul-06 00:33N 41°25' E 002°38'1717.3
2015-Jul-05 23:33N 41°34' E 002°58'272483.4
2015-Jul-05 23:00N 41°36' W 003°06'290665.8
2015-Jul-05 22:33N 41°44' E 003°22'307543.3
2015-Jul-05 22:00N 41°48' W 003°30'324747.5 240 / 171019.0 2.025.023.624.0
2015-Jul-05 21:34N 41°56' E 003°45'2120.9
2015-Jul-05 20:33N 42°08' E 004°08'2020.5
2015-Jul-05 19:33N 42°19' E 004°32'2020.5
2015-Jul-05 18:33N 42°30' E 004°55'2120.5
2015-Jul-05 17:33N 42°42' E 005°18'2121.0
2015-Jul-05 16:33N 42°54' E 005°42'1616.1
2015-Jul-05 15:33N 43°05' E 005°57'2 1.8
2015-Jul-05 14:33N 43°07' E 005°56'0 0.0
2015-Jul-05 13:32N 43°07' E 005°56'0 0.0
2015-Jul-05 12:32N 43°07' E 005°56'0 0.0
2015-Jul-05 11:31N 43°07' E 005°56'0 0.0
2015-Jul-05 10:31N 43°07' E 005°56'0 0.0
2015-Jul-05 09:33N 43°07' E 005°56'0 0.0
2015-Jul-05 08:33N 43°07' E 005°56'0 0.0
2015-Jul-05 07:33N 43°07' E 005°56'0 0.1
2015-Jul-05 06:34N 43°07' E 005°56'8 7.6
2015-Jul-05 05:34N 43°00' E 006°00'1313.2
2015-Jul-05 04:34N 42°52' E 006°15'1716.6
2015-Jul-05 03:34N 42°54' E 006°38'1717.3
2015-Jul-05 02:34N 42°58' E 007°01'1716.8
2015-Jul-05 01:34N 43°00' E 007°23'6531153.0
2015-Jul-05 01:00N 43°00' W 007°30'6701546.6 240 / 61020.0 1.026.0 27.0
2015-Jul-05 00:34N 43°03' E 007°46'1716.9
2015-Jul-04 23:34N 43°06' E 008°09'7041241.3
2015-Jul-04 23:00N 43°00' W 007°54'7201662.0 240 / 51020.0 1.026.0 27.0
2015-Jul-04 22:34N 43°09' E 008°32'7501323.9
2015-Jul-04 22:00N 43°06' W 008°36'7671769.4 250 / 61020.0 1.026.0 27.0
2015-Jul-04 21:34N 43°12' E 008°55'1716.7
2015-Jul-04 20:34N 43°15' E 009°17'1717.0
2015-Jul-04 19:34N 43°18' E 009°40'1616.4
2015-Jul-04 18:34N 43°23' E 010°02'1313.5
2015-Jul-04 17:33N 43°32' E 010°15'2 2.2
2015-Jul-04 16:31N 43°33' E 010°18'0 0.0
2015-Jul-04 15:30N 43°33' E 010°18'0 0.0
2015-Jul-04 14:30N 43°33' E 010°18'0 0.0
2015-Jul-04 13:33N 43°33' E 010°18'0 0.0
2015-Jul-04 12:32N 43°33' E 010°18'0 0.0
2015-Jul-04 11:32N 43°33' E 010°18'0 0.0
2015-Jul-04 10:31N 43°33' E 010°18'0 0.0
2015-Jul-04 09:31N 43°33' E 010°18'0 0.0
2015-Jul-04 08:33N 43°33' E 010°18'0 0.0
2015-Jul-04 07:33N 43°33' E 010°18'0 0.0
2015-Jul-04 06:32N 43°33' E 010°18'0 0.0
2015-Jul-04 05:33N 43°33' E 010°18'8 7.8
2015-Jul-04 04:33N 43°27' E 010°12'1514.6
2015-Jul-04 03:33N 43°13' E 010°07'1514.7
2015-Jul-04 02:33N 42°58' E 010°03'1514.6
2015-Jul-04 01:33N 42°44' E 009°58'1514.6
2015-Jul-04 00:33N 42°30' E 009°57'8801559.0
2015-Jul-04 00:00N 42°18' W 009°54'8842027.2 010 / 131023.0 1.026.0 27.0
2015-Jul-03 23:33N 42°15' E 010°00'1313.0
2015-Jul-03 22:33N 42°06' E 010°13'1515.1
2015-Jul-03 21:32N 42°04' E 010°33'1515.0
2015-Jul-03 20:33N 42°02' E 010°53'1515.0
2015-Jul-03 19:33N 42°00' E 011°13'26 7.4
2015-Jul-03 16:06N 42°06' E 011°46'0 0.0
2015-Jul-03 15:27N 42°06' E 011°46'0 0.0
2015-Jul-03 14:26N 42°06' E 011°46'0 0.0
2015-Jul-03 13:29N 42°06' E 011°46'0 0.0
2015-Jul-03 12:25N 42°06' E 011°46'0 0.0
2015-Jul-03 11:31N 42°06' E 011°46'0 0.0
2015-Jul-03 09:21N 42°06' E 011°46'0 0.0
2015-Jul-03 08:33N 42°06' E 011°46'0 0.0
2015-Jul-03 05:33N 42°06' E 011°46'9 7.0
2015-Jul-03 04:15N 41°57' E 011°42'1014.4
2015-Jul-03 03:33N 41°48' E 011°45'610.7
2015-Jul-03 03:00N 41°42' E 011°48'920.1 320 / 121023.0 1.025.022.226.0
2015-Jul-03 02:33N 41°36' E 011°57'1514.5
2015-Jul-03 01:33N 41°25' E 012°09'10971939.5
2015-Jul-03 01:00N 41°18' W 012°12'11082551.5 320 / 121023.0 1.025.0 26.0
2015-Jul-03 00:33N 41°14' E 012°22'11191976.7
2015-Jul-03 00:00N 41°06' W 012°24'11292591.0 340 / 111023.0 1.0 26.0
2015-Jul-02 23:33N 41°03' E 012°34'1414.4
2015-Jul-02 22:33N 40°51' E 012°46'11662061.6
2015-Jul-02 22:00N 40°42' W 012°54'11802717.4 330 / 101023.0 1.026.0 26.0
2015-Jul-02 21:33N 40°46' E 013°03'1514.8
2015-Jul-02 20:33N 40°42' E 013°22'1614.8
2015-Jul-02 19:29N 40°39' E 013°42'1314.4
2015-Jul-02 18:33N 40°38' E 013°60'1514.8
2015-Jul-02 17:33N 40°47' E 014°15'3 0.9
2015-Jul-02 14:13N 40°50' E 014°16'0 0.0
2015-Jul-02 13:31N 40°50' E 014°16'0 0.0
2015-Jul-02 12:25N 40°50' E 014°16'0 0.0
2015-Jul-02 11:33N 40°50' E 014°16'0 0.0
2015-Jul-02 05:34N 40°50' E 014°16'7 7.2
2015-Jul-02 04:33N 40°43' E 014°17'1615.5
2015-Jul-02 03:32N 40°28' E 014°21'3216.0
2015-Jul-02 01:33N 39°59' E 014°39'1716.5
2015-Jul-02 00:33N 39°44' E 014°48'5317.3
2015-Jul-01 21:29N 38°56' E 015°19'1717.6
2015-Jul-01 20:33N 38°42' E 015°28'1817.7
2015-Jul-01 19:33N 38°26' E 015°38'1414.2
2015-Jul-01 18:33N 38°12' E 015°37'1716.8
2015-Jul-01 17:33N 37°55' E 015°40'43419.7
2015-Jun-30 19:31N 37°12' E 024°44'2021.3
2015-Jun-30 18:33N 37°24' E 025°04'1212.3
2015-Jun-30 17:33N 37°28' E 025°19'0 0.0
2015-Jun-30 16:33N 37°28' E 025°19'0 0.0
2015-Jun-30 15:33N 37°28' E 025°19'0 0.0
2015-Jun-30 14:32N 37°28' E 025°19'0 0.0
2015-Jun-30 13:32N 37°28' E 025°19'0 0.0
2015-Jun-30 12:31N 37°28' E 025°19'0 0.0
2015-Jun-30 11:31N 37°28' E 025°19'0 0.0
2015-Jun-30 10:33N 37°28' E 025°19'0 0.0
2015-Jun-30 09:33N 37°28' E 025°19'6 6.2
2015-Jun-30 08:33N 37°34' E 025°17'1716.7
2015-Jun-30 07:33N 37°51' E 025°15'24316.8
2015-Jun-29 17:05N 40°54' E 028°42'1120.1
2015-Jun-29 16:33N 40°57' E 028°56'6 0.5
2015-Jun-29 05:33N 41°02' E 028°59'8 8.5
2015-Jun-29 04:33N 40°54' E 028°55'237 7.8
2015-Jun-27 22:14N 37°49' E 025°43'1115.6
2015-Jun-27 21:34N 37°43' E 025°32'1615.7
2015-Jun-27 20:33N 37°32' E 025°18'  
Track history (hours):
 
Tides and Currents Weather Stations Pressure Air Temp Water Temp Dewpoint Dewpoint Depression Visibility Wind Speed Wind Dir Waves Ship Positions

Norwegian Spirit

Operator: Norwegian Cruise Line

Last reported at 2015-Jul-07 19:34 UTC. Time now 2015-Jul-07 19:51 UTC.
Position N 42°60' E 007°09'.

Type: Ship. MMSI: 311746000.

Date/timePositionNaut miles runAvg speedWind from/ knotsBaromVisibWave heightAir tempDewpointWater temp
2015-Jul-07 19:34N 42°60' E 007°09'1515.2
2015-Jul-07 18:33N 42°58' E 006°48'1515.2
2015-Jul-07 17:33N 42°57' E 006°27'1414.3
2015-Jul-07 16:33N 42°58' E 006°08'1212.4
2015-Jul-07 15:34N 43°06' E 005°55'1 0.6
2015-Jul-07 14:32N 43°07' E 005°56'0 0.0
2015-Jul-07 13:29N 43°07' E 005°56'0 0.0
2015-Jul-07 12:31N 43°07' E 005°56'0 0.0
2015-Jul-07 11:31N 43°07' E 005°56'0 0.0
2015-Jul-07 10:34N 43°07' E 005°56'0 0.0
2015-Jul-07 09:33N 43°07' E 005°56'0 0.0
2015-Jul-07 08:33N 43°07' E 005°56'0 0.0
2015-Jul-07 07:32N 43°07' E 005°56'0 0.3
2015-Jul-07 06:33N 43°07' E 005°56'7 7.4
2015-Jul-07 05:33N 42°60' E 005°59'1017.3
2015-Jul-07 05:00N 42°54' E 005°48'614.5 160 / 181017.0 2.026.023.226.0
2015-Jul-07 04:33N 42°50' E 005°41'1220.5
2015-Jul-07 04:00N 42°42' E 005°30'511.4 160 / 181016.0 2.026.023.226.0
2015-Jul-07 03:33N 42°40' E 005°24'1716.6
2015-Jul-07 02:33N 42°33' E 005°04'1716.6
2015-Jul-07 01:33N 42°23' E 004°45'1716.7
2015-Jul-07 00:33N 42°15' E 004°26'1717.2
2015-Jul-06 23:33N 42°05' E 004°06'357634.4
2015-Jul-06 23:00N 41°54' W 003°54'343789.3
2015-Jul-06 22:33N 41°56' E 003°47'1717.1
2015-Jul-06 21:33N 41°46' E 003°27'1717.4
2015-Jul-06 20:33N 41°38' E 003°07'1817.9
2015-Jul-06 19:33N 41°29' E 002°46'1717.0
2015-Jul-06 18:33N 41°22' E 002°26'1212.1
2015-Jul-06 17:33N 41°20' E 002°10'2 2.3
2015-Jul-06 16:33N 41°22' E 002°11'0 0.0
2015-Jul-06 15:24N 41°22' E 002°11'0 0.0
2015-Jul-06 14:20N 41°22' E 002°11'0 0.0
2015-Jul-06 12:19N 41°22' E 002°11'0 0.0
2015-Jul-06 11:28N 41°22' E 002°11'0 0.0
2015-Jul-06 10:28N 41°22' E 002°11'0 0.0
2015-Jul-06 08:27N 41°22' E 002°11'0 0.0
2015-Jul-06 07:26N 41°22' E 002°11'0 0.0
2015-Jul-06 06:26N 41°22' E 002°11'0 0.0
2015-Jul-06 04:07N 41°22' E 002°11'0 0.1
2015-Jul-06 02:33N 41°22' E 002°11'8 7.7
2015-Jul-06 01:33N 41°16' E 002°18'1717.7
2015-Jul-06 00:33N 41°25' E 002°38'1717.3
2015-Jul-05 23:33N 41°34' E 002°58'272483.4
2015-Jul-05 23:00N 41°36' W 003°06'290665.8
2015-Jul-05 22:33N 41°44' E 003°22'307543.3
2015-Jul-05 22:00N 41°48' W 003°30'324747.5 240 / 171019.0 2.025.023.624.0
2015-Jul-05 21:34N 41°56' E 003°45'2120.9
2015-Jul-05 20:33N 42°08' E 004°08'2020.5
2015-Jul-05 19:33N 42°19' E 004°32'2020.5
2015-Jul-05 18:33N 42°30' E 004°55'2120.5
2015-Jul-05 17:33N 42°42' E 005°18'2121.0
2015-Jul-05 16:33N 42°54' E 005°42'1616.1
2015-Jul-05 15:33N 43°05' E 005°57'2 1.8
2015-Jul-05 14:33N 43°07' E 005°56'0 0.0
2015-Jul-05 13:32N 43°07' E 005°56'0 0.0
2015-Jul-05 12:32N 43°07' E 005°56'0 0.0
2015-Jul-05 11:31N 43°07' E 005°56'0 0.0
2015-Jul-05 10:31N 43°07' E 005°56'0 0.0
2015-Jul-05 09:33N 43°07' E 005°56'0 0.0
2015-Jul-05 08:33N 43°07' E 005°56'0 0.0
2015-Jul-05 07:33N 43°07' E 005°56'0 0.1
2015-Jul-05 06:34N 43°07' E 005°56'8 7.6
2015-Jul-05 05:34N 43°00' E 006°00'1313.2
2015-Jul-05 04:34N 42°52' E 006°15'1716.6
2015-Jul-05 03:34N 42°54' E 006°38'1717.3
2015-Jul-05 02:34N 42°58' E 007°01'1716.8
2015-Jul-05 01:34N 43°00' E 007°23'6531153.0
2015-Jul-05 01:00N 43°00' W 007°30'6701546.6 240 / 61020.0 1.026.0 27.0
2015-Jul-05 00:34N 43°03' E 007°46'1716.9
2015-Jul-04 23:34N 43°06' E 008°09'7041241.3
2015-Jul-04 23:00N 43°00' W 007°54'7201662.0 240 / 51020.0 1.026.0 27.0
2015-Jul-04 22:34N 43°09' E 008°32'7501323.9
2015-Jul-04 22:00N 43°06' W 008°36'7671769.4 250 / 61020.0 1.026.0 27.0
2015-Jul-04 21:34N 43°12' E 008°55'1716.7
2015-Jul-04 20:34N 43°15' E 009°17'1717.0
2015-Jul-04 19:34N 43°18' E 009°40'1616.4
2015-Jul-04 18:34N 43°23' E 010°02'1313.5
2015-Jul-04 17:33N 43°32' E 010°15'2 2.2
2015-Jul-04 16:31N 43°33' E 010°18'0 0.0
2015-Jul-04 15:30N 43°33' E 010°18'0 0.0
2015-Jul-04 14:30N 43°33' E 010°18'0 0.0
2015-Jul-04 13:33N 43°33' E 010°18'0 0.0
2015-Jul-04 12:32N 43°33' E 010°18'0 0.0
2015-Jul-04 11:32N 43°33' E 010°18'0 0.0
2015-Jul-04 10:31N 43°33' E 010°18'0 0.0
2015-Jul-04 09:31N 43°33' E 010°18'0 0.0
2015-Jul-04 08:33N 43°33' E 010°18'0 0.0
2015-Jul-04 07:33N 43°33' E 010°18'0 0.0
2015-Jul-04 06:32N 43°33' E 010°18'0 0.0
2015-Jul-04 05:33N 43°33' E 010°18'8 7.8
2015-Jul-04 04:33N 43°27' E 010°12'1514.6
2015-Jul-04 03:33N 43°13' E 010°07'1514.7
2015-Jul-04 02:33N 42°58' E 010°03'1514.6
2015-Jul-04 01:33N 42°44' E 009°58'1514.6
2015-Jul-04 00:33N 42°30' E 009°57'8801559.0
2015-Jul-04 00:00N 42°18' W 009°54'8842027.2 010 / 131023.0 1.026.0 27.0
2015-Jul-03 23:33N 42°15' E 010°00'1313.0
2015-Jul-03 22:33N 42°06' E 010°13'1515.1
2015-Jul-03 21:32N 42°04' E 010°33'1515.0
2015-Jul-03 20:33N 42°02' E 010°53'1515.0
2015-Jul-03 19:33N 42°00' E 011°13'26 7.4
2015-Jul-03 16:06N 42°06' E 011°46'0 0.0
2015-Jul-03 15:27N 42°06' E 011°46'0 0.0
2015-Jul-03 14:26N 42°06' E 011°46'0 0.0
2015-Jul-03 13:29N 42°06' E 011°46'0 0.0
2015-Jul-03 12:25N 42°06' E 011°46'0 0.0
2015-Jul-03 11:31N 42°06' E 011°46'0 0.0
2015-Jul-03 09:21N 42°06' E 011°46'0 0.0
2015-Jul-03 08:33N 42°06' E 011°46'0 0.0
2015-Jul-03 05:33N 42°06' E 011°46'9 7.0
2015-Jul-03 04:15N 41°57' E 011°42'1014.4
2015-Jul-03 03:33N 41°48' E 011°45'610.7
2015-Jul-03 03:00N 41°42' E 011°48'920.1 320 / 121023.0 1.025.022.226.0
2015-Jul-03 02:33N 41°36' E 011°57'1514.5
2015-Jul-03 01:33N 41°25' E 012°09'10971939.5
2015-Jul-03 01:00N 41°18' W 012°12'11082551.5 320 / 121023.0 1.025.0 26.0
2015-Jul-03 00:33N 41°14' E 012°22'11191976.7
2015-Jul-03 00:00N 41°06' W 012°24'11292591.0 340 / 111023.0 1.0 26.0
2015-Jul-02 23:33N 41°03' E 012°34'1414.4
2015-Jul-02 22:33N 40°51' E 012°46'11662061.6
2015-Jul-02 22:00N 40°42' W 012°54'11802717.4 330 / 101023.0 1.026.0 26.0
2015-Jul-02 21:33N 40°46' E 013°03'1514.8
2015-Jul-02 20:33N 40°42' E 013°22'1614.8
2015-Jul-02 19:29N 40°39' E 013°42'1314.4
2015-Jul-02 18:33N 40°38' E 013°60'1514.8
2015-Jul-02 17:33N 40°47' E 014°15'3 0.9
2015-Jul-02 14:13N 40°50' E 014°16'0 0.0
2015-Jul-02 13:31N 40°50' E 014°16'0 0.0
2015-Jul-02 12:25N 40°50' E 014°16'0 0.0
2015-Jul-02 11:33N 40°50' E 014°16'0 0.0
2015-Jul-02 05:34N 40°50' E 014°16'7 7.2
2015-Jul-02 04:33N 40°43' E 014°17'1615.5
2015-Jul-02 03:32N 40°28' E 014°21'3216.0
2015-Jul-02 01:33N 39°59' E 014°39'1716.5
2015-Jul-02 00:33N 39°44' E 014°48'5317.3
2015-Jul-01 21:29N 38°56' E 015°19'1717.6
2015-Jul-01 20:33N 38°42' E 015°28'1817.7
2015-Jul-01 19:33N 38°26' E 015°38'1414.2
2015-Jul-01 18:33N 38°12' E 015°37'1716.8
2015-Jul-01 17:33N 37°55' E 015°40'43419.7
2015-Jun-30 19:31N 37°12' E 024°44'2021.3
2015-Jun-30 18:33N 37°24' E 025°04'1212.3
2015-Jun-30 17:33N 37°28' E 025°19'0 0.0
2015-Jun-30 16:33N 37°28' E 025°19'0 0.0
2015-Jun-30 15:33N 37°28' E 025°19'0 0.0
2015-Jun-30 14:32N 37°28' E 025°19'0 0.0
2015-Jun-30 13:32N 37°28' E 025°19'0 0.0
2015-Jun-30 12:31N 37°28' E 025°19'0 0.0
2015-Jun-30 11:31N 37°28' E 025°19'0 0.0
2015-Jun-30 10:33N 37°28' E 025°19'0 0.0
2015-Jun-30 09:33N 37°28' E 025°19'6 6.2
2015-Jun-30 08:33N 37°34' E 025°17'1716.7
2015-Jun-30 07:33N 37°51' E 025°15'24316.8
2015-Jun-29 17:05N 40°54' E 028°42'1120.1
2015-Jun-29 16:33N 40°57' E 028°56'6 0.5
2015-Jun-29 05:33N 41°02' E 028°59'8 8.5
2015-Jun-29 04:33N 40°54' E 028°55'237 7.8
2015-Jun-27 22:14N 37°49' E 025°43'1115.6
2015-Jun-27 21:34N 37°43' E 025°32'1615.7
2015-Jun-27 20:33N 37°32' E 025°18'  

Dump ship's entire track history